Mohnton, Pennsylvania
Current Conditions -  °F | °C
As of 10:54 AM on Wednesday 28 Jan 2015 (Local Time) from KRDG Reporting Station
Clear Clear  
Wind Chill: 13°   Ceiling: Unl
Heat Index: 24°   Visibility: 10mi
Dew Point:   Wind: 12mph
Humidity: 40%   Direction: 320°NW
Pressure: 30.17"   Gusts: NA
Location:  40.29°N, 75.98°W
Report Text: KRDG 281554Z 32010KT 10SM CLR M04/M16 A3017 RMK AO2 SLP226 T10441161
Loading
Personal Weather Stations






























Interactive Weather Map New forecast layout! Learn more

10-Day Weather Forecast

Advertisements
Track Severe Weather on mobile